createdAt,value
2018-12-02T00:01:04.187Z,4.5
2018-12-02T00:06:26.897Z,3.2
2018-12-02T00:11:49.636Z,2.7
2018-12-02T00:17:12.327Z,4.3
2018-12-02T00:22:35.072Z,4.9
2018-12-02T00:27:57.769Z,3.1
2018-12-02T00:33:20.473Z,5.1
2018-12-02T00:38:43.179Z,3
2018-12-02T00:44:05.844Z,3.8
2018-12-02T00:49:28.500Z,3.7
2018-12-02T00:54:51.226Z,4.4
2018-12-02T01:00:13.872Z,3.6
2018-12-02T01:05:36.550Z,3.9
2018-12-02T01:10:59.196Z,2.6
2018-12-02T01:16:22.694Z,3.1
2018-12-02T01:21:46.209Z,2.7
2018-12-02T01:27:09.109Z,3.6
2018-12-02T01:32:31.938Z,2.5
2018-12-02T01:37:56.228Z,3.8
2018-12-02T01:43:19.001Z,3
2018-12-02T01:48:41.653Z,3.2
2018-12-02T01:54:04.429Z,3.4
2018-12-02T01:59:28.065Z,3.2
2018-12-02T02:04:50.875Z,4.1
2018-12-02T02:10:13.571Z,2.4
2018-12-02T02:15:36.278Z,3.4
2018-12-02T02:20:58.951Z,2.6
2018-12-02T02:26:21.572Z,2.8
2018-12-02T02:31:45.035Z,3
2018-12-02T02:37:07.762Z,3.3
2018-12-02T02:42:32.358Z,3.1
2018-12-02T02:47:55.056Z,2.4
2018-12-02T02:53:17.718Z,2.7
2018-12-02T02:58:42.951Z,2.3
2018-12-02T03:04:05.722Z,2
2018-12-02T03:09:28.441Z,2.1
2018-12-02T03:14:51.197Z,2.8
2018-12-02T03:20:13.874Z,3.1
2018-12-02T03:25:37.478Z,2.5
2018-12-02T03:31:00.102Z,3
2018-12-02T03:36:22.772Z,1.8
2018-12-02T03:41:45.847Z,1.9
2018-12-02T03:47:08.487Z,2.5
2018-12-02T03:52:32.071Z,2.6
2018-12-02T03:57:54.726Z,3.9
2018-12-02T04:03:17.590Z,2.3
2018-12-02T04:08:40.283Z,2.1
2018-12-02T04:14:03.236Z,3.3
2018-12-02T04:19:26.299Z,2.7
2018-12-02T04:24:49.024Z,2.8
2018-12-02T04:30:12.666Z,4
2018-12-02T04:35:35.443Z,3.2
2018-12-02T04:40:58.032Z,4.3
2018-12-02T04:46:20.648Z,3.3
2018-12-02T04:51:43.280Z,3
2018-12-02T04:57:06.708Z,3.1
2018-12-02T05:02:30.063Z,4.3
2018-12-02T05:07:52.706Z,3.9
2018-12-02T05:13:15.345Z,3.1
2018-12-02T05:18:38.009Z,3
2018-12-02T05:24:00.625Z,3.2
2018-12-02T05:29:23.341Z,2.4
2018-12-02T05:34:46.017Z,2.6
2018-12-02T05:40:08.848Z,3.7
2018-12-02T05:45:31.455Z,2.7
2018-12-02T05:50:54.241Z,2.6
2018-12-02T05:56:17.924Z,2.4
2018-12-02T06:01:40.539Z,2.8
2018-12-02T06:07:03.194Z,2.6
2018-12-02T06:12:25.984Z,2.7
2018-12-02T06:17:48.600Z,2.7
2018-12-02T06:23:11.304Z,3.8
2018-12-02T06:28:34.099Z,2.1
2018-12-02T06:33:56.704Z,3.1
2018-12-02T06:39:19.353Z,2.4
2018-12-02T06:44:43.032Z,2
2018-12-02T06:50:05.643Z,3.2
2018-12-02T06:55:28.482Z,3.1
2018-12-02T07:00:51.130Z,3.3
2018-12-02T07:06:13.749Z,3.2
2018-12-02T07:11:36.611Z,3
2018-12-02T07:16:59.499Z,3.8
2018-12-02T07:22:22.591Z,3.1
2018-12-02T07:27:45.217Z,2.4
2018-12-02T07:33:07.832Z,3
2018-12-02T07:38:30.485Z,2.4
2018-12-02T07:43:53.913Z,3.4
2018-12-02T07:49:16.524Z,2.6
2018-12-02T07:54:39.345Z,3.4
2018-12-02T08:00:02.110Z,2.3
2018-12-02T08:05:24.765Z,2.5
2018-12-02T08:10:47.492Z,2
2018-12-02T08:16:10.203Z,2.3
2018-12-02T08:21:32.836Z,2.9
2018-12-02T08:26:55.618Z,2.6
2018-12-02T08:32:18.384Z,4
2018-12-02T08:37:42.063Z,3
2018-12-02T08:43:04.889Z,2.3
2018-12-02T08:48:27.651Z,3
2018-12-02T08:53:50.377Z,3.3
2018-12-02T08:59:12.999Z,2.7
2018-12-02T09:04:35.705Z,3.4
2018-12-02T09:09:59.571Z,4.4
2018-12-02T09:15:21.236Z,2.7
2018-12-02T09:20:43.995Z,2.7
2018-12-02T09:26:06.677Z,4.4
2018-12-02T09:31:29.373Z,4.3
2018-12-02T09:36:57.822Z,5.3
2018-12-02T09:42:15.794Z,4.2
2018-12-02T09:47:38.541Z,12.1
2018-12-02T09:53:01.166Z,5.5
2018-12-02T09:58:23.816Z,8
2018-12-02T10:03:46.743Z,8.9
2018-12-02T10:09:09.671Z,8.7
2018-12-02T10:14:34.044Z,8.6
2018-12-02T10:19:57.134Z,8.9
2018-12-02T10:25:19.813Z,8.9
2018-12-02T10:30:42.548Z,9.4
2018-12-02T10:36:05.321Z,7.6
2018-12-02T10:41:28.027Z,9.7
2018-12-02T10:46:50.849Z,11.6
2018-12-02T10:52:13.505Z,13.4
2018-12-02T10:57:36.252Z,14.4
2018-12-02T11:02:59.126Z,17.1
2018-12-02T11:08:21.841Z,17.799999
2018-12-02T11:13:44.880Z,19.5
2018-12-02T11:19:07.538Z,21.700001
2018-12-02T11:24:31.083Z,20.5
2018-12-02T11:29:53.793Z,22.1
2018-12-02T11:35:16.506Z,21.200001
2018-12-02T11:40:39.301Z,24.299999
2018-12-02T11:46:02.632Z,22.299999
2018-12-02T11:51:25.354Z,19.700001
2018-12-02T11:56:48.813Z,19
2018-12-02T12:02:11.641Z,19.4
2018-12-02T12:07:34.329Z,20.1
2018-12-02T12:12:56.990Z,21.700001
2018-12-02T12:18:20.727Z,19.200001
2018-12-02T12:23:43.360Z,19.700001
2018-12-02T12:29:06.018Z,18.4
2018-12-02T12:34:28.706Z,16.200001
2018-12-02T12:39:51.336Z,14.5
2018-12-02T12:45:14.083Z,15.2
2018-12-02T12:50:37.428Z,15.1
2018-12-02T12:56:00.115Z,13.5
2018-12-02T13:01:22.795Z,11.8
2018-12-02T13:06:45.405Z,17.299999
2018-12-02T13:12:08.216Z,14.9
2018-12-02T13:17:31.317Z,12.5
2018-12-02T13:22:54.042Z,11.4
2018-12-02T13:28:16.798Z,12.5
2018-12-02T13:33:39.465Z,14.2
2018-12-02T13:39:02.194Z,11.2
2018-12-02T13:44:24.955Z,8.8
2018-12-02T13:49:47.909Z,12.6
2018-12-02T13:55:10.541Z,11.2
2018-12-02T14:00:33.205Z,8.8
2018-12-02T14:05:55.904Z,6.5
2018-12-02T14:11:18.575Z,6.8
2018-12-02T14:16:41.526Z,7.1
2018-12-02T14:22:04.298Z,7.9
2018-12-02T14:27:27.015Z,8.2
2018-12-02T14:32:50.510Z,13
2018-12-02T14:38:13.182Z,10.9
2018-12-02T14:43:36.309Z,12.2
2018-12-02T14:48:58.970Z,15
2018-12-02T14:54:21.637Z,13.8
2018-12-02T14:59:44.613Z,12.3
2018-12-02T15:05:07.251Z,13.6
2018-12-02T15:10:29.961Z,14.6
2018-12-02T15:15:52.628Z,12.5
2018-12-02T15:21:15.528Z,14.2
2018-12-02T15:26:38.272Z,16.200001
2018-12-02T15:32:00.952Z,15.7
2018-12-02T15:37:23.674Z,14.1
2018-12-02T15:42:47.101Z,10.6
2018-12-02T15:48:09.858Z,10.2
2018-12-02T15:53:32.583Z,9.4
2018-12-02T15:58:55.513Z,7.3
2018-12-02T16:04:18.239Z,8.6
2018-12-02T16:09:41.105Z,6.6
2018-12-02T16:15:03.983Z,7.4
2018-12-02T16:20:26.693Z,6.7
2018-12-02T16:25:49.468Z,4.9
2018-12-02T16:31:13.142Z,6.7
2018-12-02T16:36:35.920Z,5.1
2018-12-02T16:41:58.620Z,4.4
2018-12-02T16:47:21.340Z,4.5
2018-12-02T16:52:44.060Z,5.7
2018-12-02T16:58:06.741Z,5.1
2018-12-02T17:03:29.619Z,3.8
2018-12-02T17:08:52.286Z,4.1
2018-12-02T17:14:14.958Z,3.9
2018-12-02T17:19:40.998Z,5.2
2018-12-02T17:25:03.669Z,5.3
2018-12-02T17:30:26.459Z,4.4
2018-12-02T17:35:50.035Z,6.2
2018-12-02T17:41:12.699Z,5.3
2018-12-02T17:46:35.336Z,8.4
2018-12-02T17:51:57.961Z,7.9
2018-12-02T17:57:20.588Z,5.6
2018-12-02T18:02:43.291Z,5.7
2018-12-02T18:08:06.009Z,5.5
2018-12-02T18:13:28.929Z,8
2018-12-02T18:18:51.632Z,5.9
2018-12-02T18:24:14.246Z,4.6
2018-12-02T18:29:36.859Z,4.6
2018-12-02T18:34:59.701Z,4.2
2018-12-02T18:40:22.341Z,5.1
2018-12-02T18:45:45.063Z,4
2018-12-02T18:51:07.803Z,4.9
2018-12-02T18:56:30.493Z,10.8
2018-12-02T19:01:53.268Z,4.2
2018-12-02T19:07:15.946Z,6.1
2018-12-02T19:12:38.551Z,5.6
2018-12-02T19:18:01.190Z,5.3
2018-12-02T19:23:23.823Z,4
2018-12-02T19:28:47.525Z,7.6
2018-12-02T19:34:10.313Z,5.8
2018-12-02T19:39:32.954Z,8.9
2018-12-02T19:44:55.624Z,5.3
2018-12-02T19:50:18.475Z,5.1
2018-12-02T19:55:41.750Z,6.1
2018-12-02T20:01:04.443Z,5.2
2018-12-02T20:06:27.137Z,6
2018-12-02T20:11:50.505Z,5.2
2018-12-02T20:17:14.055Z,7.7
2018-12-02T20:22:36.696Z,8.6
2018-12-02T20:27:59.955Z,6.8
2018-12-02T20:33:22.586Z,8.9
2018-12-02T20:38:45.225Z,8.4
2018-12-02T20:44:07.895Z,8.4
2018-12-02T20:49:30.560Z,9.5
2018-12-02T20:54:53.221Z,11.4
2018-12-02T21:00:15.894Z,10.1
2018-12-02T21:05:38.619Z,9.8
2018-12-02T21:11:01.349Z,11.2
2018-12-02T21:16:23.969Z,9.5
2018-12-02T21:21:46.734Z,11.6
2018-12-02T21:27:10.359Z,13.7
2018-12-02T21:32:33.077Z,11.8
2018-12-02T21:37:55.866Z,12.3
2018-12-02T21:43:18.566Z,12.4
2018-12-02T21:48:41.981Z,11.9
2018-12-02T21:54:04.718Z,13.5
2018-12-02T21:59:29.621Z,12.8
2018-12-02T22:04:52.369Z,15.9
2018-12-02T22:10:15.145Z,13.2
2018-12-02T22:15:37.814Z,15
2018-12-02T22:21:00.549Z,13.3
2018-12-02T22:26:23.318Z,12.2
2018-12-02T22:31:46.931Z,14.1
2018-12-02T22:37:09.726Z,14.3
2018-12-02T22:42:32.377Z,17.200001
2018-12-02T22:47:55.332Z,21.1
2018-12-02T22:53:18.074Z,24
2018-12-02T22:58:40.851Z,22.700001
2018-12-02T23:04:03.779Z,21
2018-12-02T23:09:26.466Z,21
2018-12-02T23:14:49.124Z,19.200001
2018-12-02T23:20:11.817Z,18.700001
2018-12-02T23:25:34.460Z,20
2018-12-02T23:30:57.130Z,22.6
2018-12-02T23:36:19.818Z,17.6
2018-12-02T23:41:42.644Z,17.5
2018-12-02T23:47:05.336Z,20.5
2018-12-02T23:52:27.992Z,19
2018-12-02T23:57:50.867Z,23.799999
